sensor_id;sensor_type;location;lat;lon;timestamp;P1;durP1;ratioP1;P2;durP2;ratioP2
14048;SDS011;7099;53.922;10.728;2022-08-01T00:02:25;5.97;;;5.47;;
14048;SDS011;7099;53.922;10.728;2022-08-01T00:06:51;5.53;;;5.03;;
14048;SDS011;7099;53.922;10.728;2022-08-01T00:11:18;10.33;;;5.90;;
14048;SDS011;7099;53.922;10.728;2022-08-01T00:15:43;7.43;;;6.70;;
14048;SDS011;7099;53.922;10.728;2022-08-01T00:20:17;7.10;;;6.40;;
14048;SDS011;7099;53.922;10.728;2022-08-01T00:24:43;8.60;;;7.70;;
14048;SDS011;7099;53.922;10.728;2022-08-01T00:29:08;8.83;;;7.13;;
14048;SDS011;7099;53.922;10.728;2022-08-01T00:33:53;9.27;;;7.80;;
14048;SDS011;7099;53.922;10.728;2022-08-01T00:38:18;11.30;;;8.10;;
14048;SDS011;7099;53.922;10.728;2022-08-01T00:42:44;12.57;;;9.27;;
14048;SDS011;7099;53.922;10.728;2022-08-01T00:47:09;11.37;;;9.40;;
14048;SDS011;7099;53.922;10.728;2022-08-01T00:51:34;10.50;;;9.43;;
14048;SDS011;7099;53.922;10.728;2022-08-01T00:56:00;14.33;;;9.57;;
14048;SDS011;7099;53.922;10.728;2022-08-01T01:00:26;11.10;;;9.27;;
14048;SDS011;7099;53.922;10.728;2022-08-01T01:04:52;10.70;;;8.93;;
14048;SDS011;7099;53.922;10.728;2022-08-01T01:14:26;11.03;;;9.00;;
14048;SDS011;7099;53.922;10.728;2022-08-01T01:19:03;11.82;;;9.85;;
14048;SDS011;7099;53.922;10.728;2022-08-01T01:23:44;10.60;;;9.50;;
14048;SDS011;7099;53.922;10.728;2022-08-01T01:28:59;12.50;;;10.27;;
14048;SDS011;7099;53.922;10.728;2022-08-01T01:34:19;15.10;;;11.47;;
14048;SDS011;7099;53.922;10.728;2022-08-01T01:38:47;20.73;;;11.87;;
14048;SDS011;7099;53.922;10.728;2022-08-01T01:43:14;14.80;;;12.13;;
14048;SDS011;7099;53.922;10.728;2022-08-01T01:47:41;20.83;;;11.80;;
14048;SDS011;7099;53.922;10.728;2022-08-01T01:52:09;21.67;;;12.57;;
14048;SDS011;7099;53.922;10.728;2022-08-01T01:56:37;20.47;;;12.60;;
14048;SDS011;7099;53.922;10.728;2022-08-01T02:01:13;19.90;;;13.87;;
14048;SDS011;7099;53.922;10.728;2022-08-01T02:05:59;17.40;;;12.80;;
14048;SDS011;7099;53.922;10.728;2022-08-01T02:10:26;23.63;;;13.77;;
14048;SDS011;7099;53.922;10.728;2022-08-01T02:14:53;23.87;;;14.23;;
14048;SDS011;7099;53.922;10.728;2022-08-01T02:19:20;21.27;;;14.20;;
14048;SDS011;7099;53.922;10.728;2022-08-01T02:23:45;20.00;;;13.63;;
14048;SDS011;7099;53.922;10.728;2022-08-01T02:28:13;26.00;;;16.03;;
14048;SDS011;7099;53.922;10.728;2022-08-01T02:32:43;28.70;;;16.05;;
14048;SDS011;7099;53.922;10.728;2022-08-01T02:37:14;27.03;;;16.03;;
14048;SDS011;7099;53.922;10.728;2022-08-01T02:41:43;23.80;;;16.30;;
14048;SDS011;7099;53.922;10.728;2022-08-01T02:46:16;22.33;;;16.27;;
14048;SDS011;7099;53.922;10.728;2022-08-01T02:50:47;28.60;;;16.13;;
14048;SDS011;7099;53.922;10.728;2022-08-01T02:55:14;28.38;;;16.65;;
14048;SDS011;7099;53.922;10.728;2022-08-01T02:59:41;24.02;;;16.15;;
14048;SDS011;7099;53.922;10.728;2022-08-01T03:04:09;21.67;;;15.67;;
14048;SDS011;7099;53.922;10.728;2022-08-01T03:08:36;28.27;;;16.40;;
14048;SDS011;7099;53.922;10.728;2022-08-01T03:13:02;26.07;;;16.70;;
14048;SDS011;7099;53.922;10.728;2022-08-01T03:17:31;33.43;;;16.50;;
14048;SDS011;7099;53.922;10.728;2022-08-01T03:21:58;21.30;;;14.60;;
14048;SDS011;7099;53.922;10.728;2022-08-01T03:26:25;29.67;;;16.07;;
14048;SDS011;7099;53.922;10.728;2022-08-01T03:30:57;23.00;;;14.40;;
14048;SDS011;7099;53.922;10.728;2022-08-01T03:35:26;25.10;;;14.23;;
14048;SDS011;7099;53.922;10.728;2022-08-01T03:40:06;25.30;;;14.37;;
14048;SDS011;7099;53.922;10.728;2022-08-01T03:44:40;23.40;;;14.20;;
14048;SDS011;7099;53.922;10.728;2022-08-01T03:49:22;21.27;;;13.57;;
14048;SDS011;7099;53.922;10.728;2022-08-01T03:53:54;23.93;;;15.50;;
14048;SDS011;7099;53.922;10.728;2022-08-01T03:58:20;22.20;;;13.37;;
14048;SDS011;7099;53.922;10.728;2022-08-01T04:02:47;23.37;;;13.60;;
14048;SDS011;7099;53.922;10.728;2022-08-01T04:11:49;21.90;;;14.57;;
14048;SDS011;7099;53.922;10.728;2022-08-01T04:16:14;22.87;;;14.87;;
14048;SDS011;7099;53.922;10.728;2022-08-01T04:20:40;28.20;;;16.00;;
14048;SDS011;7099;53.922;10.728;2022-08-01T04:25:11;27.87;;;14.90;;
14048;SDS011;7099;53.922;10.728;2022-08-01T04:29:41;32.33;;;16.17;;
14048;SDS011;7099;53.922;10.728;2022-08-01T04:34:07;26.17;;;15.63;;
14048;SDS011;7099;53.922;10.728;2022-08-01T04:38:37;22.37;;;15.80;;
14048;SDS011;7099;53.922;10.728;2022-08-01T04:43:04;36.20;;;14.53;;
14048;SDS011;7099;53.922;10.728;2022-08-01T04:47:30;24.53;;;14.33;;
14048;SDS011;7099;53.922;10.728;2022-08-01T04:51:56;26.60;;;13.80;;
14048;SDS011;7099;53.922;10.728;2022-08-01T04:56:22;26.77;;;14.00;;
14048;SDS011;7099;53.922;10.728;2022-08-01T05:00:47;22.00;;;14.13;;
14048;SDS011;7099;53.922;10.728;2022-08-01T05:05:13;26.33;;;15.90;;
14048;SDS011;7099;53.922;10.728;2022-08-01T05:09:40;25.73;;;14.47;;
14048;SDS011;7099;53.922;10.728;2022-08-01T05:20:10;19.93;;;13.50;;
14048;SDS011;7099;53.922;10.728;2022-08-01T05:30:36;18.90;;;12.37;;
14048;SDS011;7099;53.922;10.728;2022-08-01T05:35:03;18.13;;;11.30;;
14048;SDS011;7099;53.922;10.728;2022-08-01T05:39:29;23.63;;;12.00;;
14048;SDS011;7099;53.922;10.728;2022-08-01T05:43:55;13.23;;;10.10;;
14048;SDS011;7099;53.922;10.728;2022-08-01T05:48:20;11.30;;;8.07;;
14048;SDS011;7099;53.922;10.728;2022-08-01T05:52:46;10.20;;;7.30;;
14048;SDS011;7099;53.922;10.728;2022-08-01T05:57:11;9.50;;;6.10;;
14048;SDS011;7099;53.922;10.728;2022-08-01T06:01:38;7.40;;;5.70;;
14048;SDS011;7099;53.922;10.728;2022-08-01T06:06:08;4.47;;;4.07;;
14048;SDS011;7099;53.922;10.728;2022-08-01T06:10:34;4.90;;;3.40;;
14048;SDS011;7099;53.922;10.728;2022-08-01T06:14:59;4.27;;;3.43;;
14048;SDS011;7099;53.922;10.728;2022-08-01T06:19:24;7.10;;;3.50;;
14048;SDS011;7099;53.922;10.728;2022-08-01T06:23:50;4.13;;;2.63;;
14048;SDS011;7099;53.922;10.728;2022-08-01T06:28:16;5.20;;;3.50;;
14048;SDS011;7099;53.922;10.728;2022-08-01T06:32:41;5.43;;;3.40;;
14048;SDS011;7099;53.922;10.728;2022-08-01T06:37:06;4.30;;;3.40;;
14048;SDS011;7099;53.922;10.728;2022-08-01T06:41:32;4.20;;;3.70;;
14048;SDS011;7099;53.922;10.728;2022-08-01T06:45:57;7.13;;;4.20;;
14048;SDS011;7099;53.922;10.728;2022-08-01T06:50:22;7.60;;;4.37;;
14048;SDS011;7099;53.922;10.728;2022-08-01T06:54:48;4.30;;;3.90;;
14048;SDS011;7099;53.922;10.728;2022-08-01T06:59:14;7.67;;;4.67;;
14048;SDS011;7099;53.922;10.728;2022-08-01T07:03:39;7.83;;;3.93;;
14048;SDS011;7099;53.922;10.728;2022-08-01T07:08:18;5.60;;;4.10;;
14048;SDS011;7099;53.922;10.728;2022-08-01T07:12:44;6.43;;;4.50;;
14048;SDS011;7099;53.922;10.728;2022-08-01T07:17:09;6.23;;;4.53;;
14048;SDS011;7099;53.922;10.728;2022-08-01T07:21:34;6.07;;;4.53;;
14048;SDS011;7099;53.922;10.728;2022-08-01T07:26:04;8.23;;;4.67;;
14048;SDS011;7099;53.922;10.728;2022-08-01T07:30:31;7.13;;;4.57;;
14048;SDS011;7099;53.922;10.728;2022-08-01T07:34:56;6.60;;;4.43;;
14048;SDS011;7099;53.922;10.728;2022-08-01T07:39:23;8.55;;;3.80;;
14048;SDS011;7099;53.922;10.728;2022-08-01T07:43:49;9.20;;;4.33;;
14048;SDS011;7099;53.922;10.728;2022-08-01T07:48:23;11.23;;;4.20;;
14048;SDS011;7099;53.922;10.728;2022-08-01T07:52:49;9.90;;;4.33;;
14048;SDS011;7099;53.922;10.728;2022-08-01T07:57:14;6.53;;;4.10;;
14048;SDS011;7099;53.922;10.728;2022-08-01T08:01:39;10.97;;;4.77;;
14048;SDS011;7099;53.922;10.728;2022-08-01T08:06:06;4.63;;;4.03;;
14048;SDS011;7099;53.922;10.728;2022-08-01T08:10:31;6.03;;;4.30;;
14048;SDS011;7099;53.922;10.728;2022-08-01T08:14:57;6.10;;;4.17;;
14048;SDS011;7099;53.922;10.728;2022-08-01T08:19:25;5.13;;;4.20;;
14048;SDS011;7099;53.922;10.728;2022-08-01T08:24:02;4.93;;;4.20;;
14048;SDS011;7099;53.922;10.728;2022-08-01T08:28:50;9.83;;;3.87;;
14048;SDS011;7099;53.922;10.728;2022-08-01T08:33:15;8.90;;;3.90;;
14048;SDS011;7099;53.922;10.728;2022-08-01T08:37:41;4.90;;;3.67;;
14048;SDS011;7099;53.922;10.728;2022-08-01T08:42:12;4.93;;;2.90;;
14048;SDS011;7099;53.922;10.728;2022-08-01T08:46:42;10.10;;;2.60;;
14048;SDS011;7099;53.922;10.728;2022-08-01T08:51:13;4.90;;;3.20;;
14048;SDS011;7099;53.922;10.728;2022-08-01T08:55:42;4.70;;;2.37;;
14048;SDS011;7099;53.922;10.728;2022-08-01T09:00:20;5.23;;;2.57;;
14048;SDS011;7099;53.922;10.728;2022-08-01T09:04:46;5.03;;;2.30;;
14048;SDS011;7099;53.922;10.728;2022-08-01T09:09:14;2.80;;;2.00;;
14048;SDS011;7099;53.922;10.728;2022-08-01T09:13:39;4.40;;;1.88;;
14048;SDS011;7099;53.922;10.728;2022-08-01T09:18:24;4.90;;;1.80;;
14048;SDS011;7099;53.922;10.728;2022-08-01T09:23:03;3.47;;;2.10;;
14048;SDS011;7099;53.922;10.728;2022-08-01T09:27:29;1.97;;;1.57;;
14048;SDS011;7099;53.922;10.728;2022-08-01T09:31:55;3.93;;;2.10;;
14048;SDS011;7099;53.922;10.728;2022-08-01T09:36:26;2.10;;;1.90;;
14048;SDS011;7099;53.922;10.728;2022-08-01T09:41:12;3.00;;;1.80;;
14048;SDS011;7099;53.922;10.728;2022-08-01T09:45:38;6.23;;;2.20;;
14048;SDS011;7099;53.922;10.728;2022-08-01T09:50:07;4.10;;;2.33;;
14048;SDS011;7099;53.922;10.728;2022-08-01T09:54:35;7.33;;;2.50;;
14048;SDS011;7099;53.922;10.728;2022-08-01T09:59:00;4.87;;;2.57;;
14048;SDS011;7099;53.922;10.728;2022-08-01T10:03:26;8.63;;;3.03;;
14048;SDS011;7099;53.922;10.728;2022-08-01T10:08:03;2.87;;;2.47;;
14048;SDS011;7099;53.922;10.728;2022-08-01T10:12:31;8.97;;;2.30;;
14048;SDS011;7099;53.922;10.728;2022-08-01T10:16:59;4.47;;;2.13;;
14048;SDS011;7099;53.922;10.728;2022-08-01T10:21:29;4.03;;;1.80;;
14048;SDS011;7099;53.922;10.728;2022-08-01T10:26:17;5.75;;;1.73;;
14048;SDS011;7099;53.922;10.728;2022-08-01T10:30:50;5.43;;;1.83;;
14048;SDS011;7099;53.922;10.728;2022-08-01T10:35:17;6.13;;;1.80;;
14048;SDS011;7099;53.922;10.728;2022-08-01T10:40:03;4.33;;;1.80;;
14048;SDS011;7099;53.922;10.728;2022-08-01T10:44:51;2.50;;;1.57;;
14048;SDS011;7099;53.922;10.728;2022-08-01T10:49:17;5.27;;;2.03;;
14048;SDS011;7099;53.922;10.728;2022-08-01T10:53:50;9.43;;;2.13;;
14048;SDS011;7099;53.922;10.728;2022-08-01T10:58:20;10.97;;;2.83;;
14048;SDS011;7099;53.922;10.728;2022-08-01T11:03:08;9.03;;;1.80;;
14048;SDS011;7099;53.922;10.728;2022-08-01T11:12:37;8.27;;;2.27;;
14048;SDS011;7099;53.922;10.728;2022-08-01T11:17:29;6.83;;;2.00;;
14048;SDS011;7099;53.922;10.728;2022-08-01T11:22:01;6.70;;;2.07;;
14048;SDS011;7099;53.922;10.728;2022-08-01T11:26:28;11.00;;;1.87;;
14048;SDS011;7099;53.922;10.728;2022-08-01T11:30:55;5.27;;;1.77;;
14048;SDS011;7099;53.922;10.728;2022-08-01T11:36:28;9.17;;;1.70;;
14048;SDS011;7099;53.922;10.728;2022-08-01T11:40:39;9.70;;;2.40;;
14048;SDS011;7099;53.922;10.728;2022-08-01T11:45:04;6.40;;;1.77;;
14048;SDS011;7099;53.922;10.728;2022-08-01T11:54:13;5.43;;;2.10;;
14048;SDS011;7099;53.922;10.728;2022-08-01T11:58:59;6.50;;;1.73;;
14048;SDS011;7099;53.922;10.728;2022-08-01T12:03:25;7.00;;;2.00;;
14048;SDS011;7099;53.922;10.728;2022-08-01T12:07:57;6.40;;;1.87;;
14048;SDS011;7099;53.922;10.728;2022-08-01T12:12:23;7.53;;;1.73;;
14048;SDS011;7099;53.922;10.728;2022-08-01T12:16:49;3.53;;;1.57;;
14048;SDS011;7099;53.922;10.728;2022-08-01T12:21:18;3.33;;;1.60;;
14048;SDS011;7099;53.922;10.728;2022-08-01T12:25:44;5.40;;;1.80;;
14048;SDS011;7099;53.922;10.728;2022-08-01T12:30:16;4.73;;;1.40;;
14048;SDS011;7099;53.922;10.728;2022-08-01T12:34:47;8.33;;;1.70;;
14048;SDS011;7099;53.922;10.728;2022-08-01T12:39:12;7.10;;;1.57;;
14048;SDS011;7099;53.922;10.728;2022-08-01T12:43:37;6.50;;;1.60;;
14048;SDS011;7099;53.922;10.728;2022-08-01T12:48:06;8.03;;;1.97;;
14048;SDS011;7099;53.922;10.728;2022-08-01T12:52:40;7.60;;;1.67;;
14048;SDS011;7099;53.922;10.728;2022-08-01T12:57:21;3.80;;;1.40;;
14048;SDS011;7099;53.922;10.728;2022-08-01T13:01:49;5.27;;;1.50;;
14048;SDS011;7099;53.922;10.728;2022-08-01T13:06:14;5.83;;;1.53;;
14048;SDS011;7099;53.922;10.728;2022-08-01T13:10:42;2.50;;;1.37;;
14048;SDS011;7099;53.922;10.728;2022-08-01T13:15:17;10.03;;;2.03;;
14048;SDS011;7099;53.922;10.728;2022-08-01T13:19:45;10.93;;;2.23;;
14048;SDS011;7099;53.922;10.728;2022-08-01T13:24:12;7.70;;;1.40;;
14048;SDS011;7099;53.922;10.728;2022-08-01T13:28:37;6.50;;;1.77;;
14048;SDS011;7099;53.922;10.728;2022-08-01T13:33:03;9.03;;;1.63;;
14048;SDS011;7099;53.922;10.728;2022-08-01T13:37:28;6.30;;;1.87;;
14048;SDS011;7099;53.922;10.728;2022-08-01T13:41:55;4.20;;;1.93;;
14048;SDS011;7099;53.922;10.728;2022-08-01T13:46:21;8.87;;;2.07;;
14048;SDS011;7099;53.922;10.728;2022-08-01T13:50:46;3.23;;;1.40;;
14048;SDS011;7099;53.922;10.728;2022-08-01T13:55:31;4.33;;;1.30;;
14048;SDS011;7099;53.922;10.728;2022-08-01T13:59:59;2.63;;;1.40;;
14048;SDS011;7099;53.922;10.728;2022-08-01T14:04:24;4.20;;;1.60;;
14048;SDS011;7099;53.922;10.728;2022-08-01T14:08:49;4.33;;;1.50;;
14048;SDS011;7099;53.922;10.728;2022-08-01T14:13:15;2.50;;;1.23;;
14048;SDS011;7099;53.922;10.728;2022-08-01T14:17:40;6.63;;;1.73;;
14048;SDS011;7099;53.922;10.728;2022-08-01T14:22:11;3.90;;;1.50;;
14048;SDS011;7099;53.922;10.728;2022-08-01T14:26:36;7.80;;;2.17;;
14048;SDS011;7099;53.922;10.728;2022-08-01T14:31:02;8.43;;;1.70;;
14048;SDS011;7099;53.922;10.728;2022-08-01T14:35:30;5.90;;;1.20;;
14048;SDS011;7099;53.922;10.728;2022-08-01T14:40:15;4.03;;;1.60;;
14048;SDS011;7099;53.922;10.728;2022-08-01T14:44:43;3.27;;;1.40;;
14048;SDS011;7099;53.922;10.728;2022-08-01T14:49:13;3.30;;;1.40;;
14048;SDS011;7099;53.922;10.728;2022-08-01T14:53:39;11.90;;;1.70;;
14048;SDS011;7099;53.922;10.728;2022-08-01T14:58:10;4.73;;;1.40;;
14048;SDS011;7099;53.922;10.728;2022-08-01T15:02:35;7.90;;;1.50;;
14048;SDS011;7099;53.922;10.728;2022-08-01T15:07:01;5.53;;;1.30;;
14048;SDS011;7099;53.922;10.728;2022-08-01T15:11:26;4.37;;;1.20;;
14048;SDS011;7099;53.922;10.728;2022-08-01T15:15:58;5.10;;;1.33;;
14048;SDS011;7099;53.922;10.728;2022-08-01T15:20:24;3.60;;;1.40;;
14048;SDS011;7099;53.922;10.728;2022-08-01T15:24:52;2.63;;;1.33;;
14048;SDS011;7099;53.922;10.728;2022-08-01T15:29:21;7.63;;;1.60;;
14048;SDS011;7099;53.922;10.728;2022-08-01T15:33:46;3.00;;;1.20;;
14048;SDS011;7099;53.922;10.728;2022-08-01T15:38:11;5.70;;;1.30;;
14048;SDS011;7099;53.922;10.728;2022-08-01T15:42:36;7.03;;;1.73;;
14048;SDS011;7099;53.922;10.728;2022-08-01T15:47:02;6.70;;;1.80;;
14048;SDS011;7099;53.922;10.728;2022-08-01T15:51:28;7.70;;;1.60;;
14048;SDS011;7099;53.922;10.728;2022-08-01T15:55:53;3.83;;;1.33;;
14048;SDS011;7099;53.922;10.728;2022-08-01T16:00:19;9.27;;;1.80;;
14048;SDS011;7099;53.922;10.728;2022-08-01T16:04:44;9.07;;;1.70;;
14048;SDS011;7099;53.922;10.728;2022-08-01T16:09:09;5.03;;;1.60;;
14048;SDS011;7099;53.922;10.728;2022-08-01T16:13:42;3.90;;;1.47;;
14048;SDS011;7099;53.922;10.728;2022-08-01T16:18:09;6.17;;;1.97;;
14048;SDS011;7099;53.922;10.728;2022-08-01T16:22:39;6.00;;;1.37;;
14048;SDS011;7099;53.922;10.728;2022-08-01T16:27:04;7.53;;;1.90;;
14048;SDS011;7099;53.922;10.728;2022-08-01T16:31:30;6.33;;;1.80;;
14048;SDS011;7099;53.922;10.728;2022-08-01T16:36:15;5.83;;;1.40;;
14048;SDS011;7099;53.922;10.728;2022-08-01T16:40:41;5.43;;;1.60;;
14048;SDS011;7099;53.922;10.728;2022-08-01T16:45:11;8.83;;;1.97;;
14048;SDS011;7099;53.922;10.728;2022-08-01T16:49:38;6.03;;;1.67;;
14048;SDS011;7099;53.922;10.728;2022-08-01T16:54:03;7.00;;;1.80;;
14048;SDS011;7099;53.922;10.728;2022-08-01T16:58:49;9.00;;;2.00;;
14048;SDS011;7099;53.922;10.728;2022-08-01T17:03:14;5.83;;;1.77;;
14048;SDS011;7099;53.922;10.728;2022-08-01T17:08:00;4.00;;;1.40;;
14048;SDS011;7099;53.922;10.728;2022-08-01T17:12:26;8.20;;;1.87;;
14048;SDS011;7099;53.922;10.728;2022-08-01T17:16:51;8.80;;;1.90;;
14048;SDS011;7099;53.922;10.728;2022-08-01T17:21:17;8.63;;;2.00;;
14048;SDS011;7099;53.922;10.728;2022-08-01T17:25:42;12.33;;;2.03;;
14048;SDS011;7099;53.922;10.728;2022-08-01T17:30:08;8.63;;;2.00;;
14048;SDS011;7099;53.922;10.728;2022-08-01T17:34:33;7.03;;;2.23;;
14048;SDS011;7099;53.922;10.728;2022-08-01T17:38:59;8.40;;;2.00;;
14048;SDS011;7099;53.922;10.728;2022-08-01T17:43:26;5.23;;;1.80;;
14048;SDS011;7099;53.922;10.728;2022-08-01T17:47:51;11.77;;;1.83;;
14048;SDS011;7099;53.922;10.728;2022-08-01T17:52:16;5.37;;;1.73;;
14048;SDS011;7099;53.922;10.728;2022-08-01T17:56:42;7.43;;;1.83;;
14048;SDS011;7099;53.922;10.728;2022-08-01T18:01:09;8.43;;;1.73;;
14048;SDS011;7099;53.922;10.728;2022-08-01T18:05:35;8.40;;;2.23;;
14048;SDS011;7099;53.922;10.728;2022-08-01T18:10:01;14.13;;;2.50;;
14048;SDS011;7099;53.922;10.728;2022-08-01T18:14:35;15.07;;;1.70;;
14048;SDS011;7099;53.922;10.728;2022-08-01T18:19:04;7.30;;;1.70;;
14048;SDS011;7099;53.922;10.728;2022-08-01T18:23:30;6.17;;;1.87;;
14048;SDS011;7099;53.922;10.728;2022-08-01T18:27:57;9.10;;;1.83;;
14048;SDS011;7099;53.922;10.728;2022-08-01T18:32:42;13.00;;;2.13;;
14048;SDS011;7099;53.922;10.728;2022-08-01T18:37:07;6.60;;;1.50;;
14048;SDS011;7099;53.922;10.728;2022-08-01T18:41:38;10.57;;;2.00;;
14048;SDS011;7099;53.922;10.728;2022-08-01T18:46:03;10.67;;;1.80;;
14048;SDS011;7099;53.922;10.728;2022-08-01T18:50:29;3.93;;;1.57;;
14048;SDS011;7099;53.922;10.728;2022-08-01T18:54:55;10.03;;;1.83;;
14048;SDS011;7099;53.922;10.728;2022-08-01T18:59:20;8.60;;;2.10;;
14048;SDS011;7099;53.922;10.728;2022-08-01T19:03:45;7.67;;;1.60;;
14048;SDS011;7099;53.922;10.728;2022-08-01T19:08:11;6.97;;;1.83;;
14048;SDS011;7099;53.922;10.728;2022-08-01T19:12:36;4.80;;;1.50;;
14048;SDS011;7099;53.922;10.728;2022-08-01T19:17:01;9.60;;;2.00;;
14048;SDS011;7099;53.922;10.728;2022-08-01T19:21:27;10.90;;;1.70;;
14048;SDS011;7099;53.922;10.728;2022-08-01T19:25:54;4.27;;;1.63;;
14048;SDS011;7099;53.922;10.728;2022-08-01T19:30:22;8.90;;;2.00;;
14048;SDS011;7099;53.922;10.728;2022-08-01T19:34:49;4.83;;;1.67;;
14048;SDS011;7099;53.922;10.728;2022-08-01T19:39:29;11.07;;;2.30;;
14048;SDS011;7099;53.922;10.728;2022-08-01T19:43:55;5.37;;;1.60;;
14048;SDS011;7099;53.922;10.728;2022-08-01T19:48:25;9.00;;;1.80;;
14048;SDS011;7099;53.922;10.728;2022-08-01T19:52:51;8.90;;;1.70;;
14048;SDS011;7099;53.922;10.728;2022-08-01T19:57:18;5.33;;;1.77;;
14048;SDS011;7099;53.922;10.728;2022-08-01T20:01:45;7.67;;;2.00;;
14048;SDS011;7099;53.922;10.728;2022-08-01T20:06:12;5.60;;;1.93;;
14048;SDS011;7099;53.922;10.728;2022-08-01T20:10:37;4.97;;;1.70;;
14048;SDS011;7099;53.922;10.728;2022-08-01T20:15:04;12.03;;;2.20;;
14048;SDS011;7099;53.922;10.728;2022-08-01T20:19:30;5.43;;;1.60;;
14048;SDS011;7099;53.922;10.728;2022-08-01T20:23:56;4.77;;;1.57;;
14048;SDS011;7099;53.922;10.728;2022-08-01T20:28:27;10.23;;;2.00;;
14048;SDS011;7099;53.922;10.728;2022-08-01T20:32:53;9.20;;;1.60;;
14048;SDS011;7099;53.922;10.728;2022-08-01T20:37:23;6.00;;;1.60;;
14048;SDS011;7099;53.922;10.728;2022-08-01T20:42:09;7.80;;;2.30;;
14048;SDS011;7099;53.922;10.728;2022-08-01T20:46:36;6.67;;;1.97;;
14048;SDS011;7099;53.922;10.728;2022-08-01T20:51:02;8.50;;;2.17;;
14048;SDS011;7099;53.922;10.728;2022-08-01T20:55:43;5.50;;;1.50;;
14048;SDS011;7099;53.922;10.728;2022-08-01T21:00:12;8.03;;;1.70;;
14048;SDS011;7099;53.922;10.728;2022-08-01T21:09:17;7.07;;;2.10;;
14048;SDS011;7099;53.922;10.728;2022-08-01T21:13:47;9.07;;;2.00;;
14048;SDS011;7099;53.922;10.728;2022-08-01T21:27:38;6.75;;;1.98;;
14048;SDS011;7099;53.922;10.728;2022-08-01T21:32:04;9.18;;;1.92;;
14048;SDS011;7099;53.922;10.728;2022-08-01T21:36:38;7.50;;;1.60;;
14048;SDS011;7099;53.922;10.728;2022-08-01T21:41:07;4.30;;;1.60;;
14048;SDS011;7099;53.922;10.728;2022-08-01T21:45:33;5.87;;;1.90;;
14048;SDS011;7099;53.922;10.728;2022-08-01T21:50:21;4.00;;;1.50;;
14048;SDS011;7099;53.922;10.728;2022-08-01T21:55:04;8.90;;;2.10;;
14048;SDS011;7099;53.922;10.728;2022-08-01T22:04:34;7.20;;;1.80;;
14048;SDS011;7099;53.922;10.728;2022-08-01T22:09:30;12.57;;;2.00;;
14048;SDS011;7099;53.922;10.728;2022-08-01T22:13:57;12.77;;;1.90;;
14048;SDS011;7099;53.922;10.728;2022-08-01T22:18:28;11.03;;;2.23;;
14048;SDS011;7099;53.922;10.728;2022-08-01T22:22:55;5.70;;;1.87;;
14048;SDS011;7099;53.922;10.728;2022-08-01T22:27:21;11.27;;;1.90;;
14048;SDS011;7099;53.922;10.728;2022-08-01T22:32:07;7.07;;;1.83;;
14048;SDS011;7099;53.922;10.728;2022-08-01T22:36:33;7.90;;;2.20;;
14048;SDS011;7099;53.922;10.728;2022-08-01T22:45:39;8.18;;;1.88;;
14048;SDS011;7099;53.922;10.728;2022-08-01T22:50:15;3.47;;;1.77;;
14048;SDS011;7099;53.922;10.728;2022-08-01T22:55:04;13.50;;;1.90;;
14048;SDS011;7099;53.922;10.728;2022-08-01T22:59:31;5.27;;;1.50;;
14048;SDS011;7099;53.922;10.728;2022-08-01T23:04:06;13.70;;;1.90;;
14048;SDS011;7099;53.922;10.728;2022-08-01T23:08:53;6.50;;;1.47;;
14048;SDS011;7099;53.922;10.728;2022-08-01T23:13:19;7.17;;;1.73;;
14048;SDS011;7099;53.922;10.728;2022-08-01T23:17:47;6.33;;;1.70;;
14048;SDS011;7099;53.922;10.728;2022-08-01T23:22:13;3.37;;;1.60;;
14048;SDS011;7099;53.922;10.728;2022-08-01T23:26:39;5.13;;;2.20;;
14048;SDS011;7099;53.922;10.728;2022-08-01T23:31:06;7.60;;;2.00;;
14048;SDS011;7099;53.922;10.728;2022-08-01T23:35:32;8.53;;;2.07;;
14048;SDS011;7099;53.922;10.728;2022-08-01T23:40:02;5.07;;;1.70;;
14048;SDS011;7099;53.922;10.728;2022-08-01T23:44:28;6.47;;;1.80;;
14048;SDS011;7099;53.922;10.728;2022-08-01T23:48:53;6.80;;;2.47;;
14048;SDS011;7099;53.922;10.728;2022-08-01T23:53:19;11.13;;;1.97;;
14048;SDS011;7099;53.922;10.728;2022-08-01T23:57:44;6.07;;;2.00;;
